createdAt,value
2019-04-05T00:00:50.668Z,99843.02
2019-04-05T00:03:22.147Z,99841.81
2019-04-05T00:05:53.097Z,99843.26
2019-04-05T00:08:24.074Z,99842.94
2019-04-05T00:10:55.237Z,99842.21
2019-04-05T00:13:26.750Z,99841.44
2019-04-05T00:15:57.407Z,99843.23
2019-04-05T00:18:28.880Z,99841.67
2019-04-05T00:20:59.924Z,99833.91
2019-04-05T00:23:31.427Z,99836.19
2019-04-05T00:26:02.106Z,99830.61
2019-04-05T00:28:32.975Z,99830.69
2019-04-05T00:31:03.905Z,99835.09
2019-04-05T00:33:34.551Z,99834.73
2019-04-05T00:36:05.608Z,99837.36
2019-04-05T00:38:36.326Z,99833.45
2019-04-05T00:41:07.347Z,99837.80
2019-04-05T00:43:38.306Z,99831.70
2019-04-05T00:46:09.290Z,99836.95
2019-04-05T00:48:40.579Z,99832.14
2019-04-05T00:51:11.707Z,99831.72
2019-04-05T00:53:43.344Z,99833.94
2019-04-05T00:56:14.021Z,99835.25
2019-04-05T00:58:45.111Z,99838.76
2019-04-05T01:01:16.194Z,99839.71
2019-04-05T01:03:47.366Z,99837.52
2019-04-05T01:06:18.589Z,99840.56
2019-04-05T01:08:49.522Z,99843.13
2019-04-05T01:11:20.702Z,99843.91
2019-04-05T01:13:52.898Z,99840.34
2019-04-05T01:16:23.726Z,99848.69
2019-04-05T01:18:54.772Z,99845.14
2019-04-05T01:21:26.331Z,99844.84
2019-04-05T01:23:59.322Z,99847.38
2019-04-05T01:26:30.192Z,99845.12
2019-04-05T01:29:01.556Z,99846.80
2019-04-05T01:31:32.631Z,99845.06
2019-04-05T01:34:05.562Z,99852.02
2019-04-05T01:36:36.589Z,99850.17
2019-04-05T01:39:07.637Z,99857.25
2019-04-05T01:41:38.514Z,99862.24
2019-04-05T01:44:09.688Z,99865.06
2019-04-05T01:46:40.997Z,99861.83
2019-04-05T01:49:12.335Z,99866.33
2019-04-05T01:51:43.633Z,99862.58
2019-04-05T01:54:14.740Z,99861.56
2019-04-05T01:56:45.514Z,99861.30
2019-04-05T01:59:16.557Z,99864.05
2019-04-05T02:01:48.069Z,99862.91
2019-04-05T02:04:19.354Z,99869.61
2019-04-05T02:06:51.803Z,99867.58
2019-04-05T02:09:22.993Z,99865.56
2019-04-05T02:11:54.099Z,99872.09
2019-04-05T02:14:25.215Z,99873.37
2019-04-05T02:16:56.348Z,99877.13
2019-04-05T02:19:27.294Z,99876.31
2019-04-05T02:21:58.205Z,99880.03
2019-04-05T02:24:29.585Z,99879.87
2019-04-05T02:27:01.414Z,99880.69
2019-04-05T02:29:33.453Z,99877.39
2019-04-05T02:32:04.450Z,99872.77
2019-04-05T02:34:35.306Z,99881.69
2019-04-05T02:37:06.088Z,99877.69
2019-04-05T02:39:37.017Z,99872.11
2019-04-05T02:42:08.057Z,99877.23
2019-04-05T02:44:39.112Z,99881.14
2019-04-05T02:47:10.193Z,99876.25
2019-04-05T02:49:41.418Z,99886.30
2019-04-05T02:52:12.675Z,99890.27
2019-04-05T02:54:43.695Z,99892.00
2019-04-05T02:57:14.784Z,99884.89
2019-04-05T02:59:45.715Z,99892.23
2019-04-05T03:02:16.396Z,99889.36
2019-04-05T03:04:48.595Z,99896.83
2019-04-05T03:07:19.411Z,99894.02
2019-04-05T03:09:50.692Z,99900.87
2019-04-05T03:12:21.618Z,99898.23
2019-04-05T03:14:52.915Z,99895.09
2019-04-05T03:17:24.157Z,99899.88
2019-04-05T03:19:55.322Z,99899.03
2019-04-05T03:22:26.482Z,99900.94
2019-04-05T03:24:58.230Z,99896.92
2019-04-05T03:27:31.982Z,99901.94
2019-04-05T03:30:02.880Z,99906.00
2019-04-05T03:32:33.832Z,99908.47
2019-04-05T03:35:06.527Z,99913.16
2019-04-05T03:37:37.898Z,99912.07
2019-04-05T03:40:09.145Z,99913.48
2019-04-05T03:42:40.022Z,99922.46
2019-04-05T03:45:11.022Z,99921.26
2019-04-05T03:47:41.931Z,99922.75
2019-04-05T03:50:12.963Z,99926.55
2019-04-05T03:52:44.003Z,99928.93
2019-04-05T03:55:14.908Z,99928.14
2019-04-05T03:57:45.887Z,99925.92
2019-04-05T04:00:16.675Z,99927.99
2019-04-05T04:02:47.863Z,99930.52
2019-04-05T04:05:19.445Z,99926.80
2019-04-05T04:07:50.437Z,99932.13
2019-04-05T04:10:21.514Z,99932.43
2019-04-05T04:12:52.616Z,99940.84
2019-04-05T04:15:23.547Z,99937.29
2019-04-05T04:17:55.773Z,99937.47
2019-04-05T04:20:30.215Z,99943.16
2019-04-05T04:23:01.525Z,99944.76
2019-04-05T04:25:32.768Z,99944.81
2019-04-05T04:28:03.689Z,99949.27
2019-04-05T04:30:34.967Z,99947.47
2019-04-05T04:33:06.353Z,99951.75
2019-04-05T04:35:37.810Z,99942.94
2019-04-05T04:38:09.175Z,99956.03
2019-04-05T04:40:39.775Z,99959.64
2019-04-05T04:43:11.072Z,99959.22
2019-04-05T04:45:42.306Z,99959.17
2019-04-05T04:48:13.406Z,99955.03
2019-04-05T04:50:44.897Z,99962.11
2019-04-05T04:53:15.771Z,99957.80
2019-04-05T04:55:47.660Z,99955.94
2019-04-05T04:58:18.481Z,99963.45
2019-04-05T05:00:49.462Z,99968.11
2019-04-05T05:03:20.446Z,99965.09
2019-04-05T05:05:51.275Z,99967.77
2019-04-05T05:08:22.154Z,99977.33
2019-04-05T05:10:53.433Z,99975.91
2019-04-05T05:13:24.559Z,99975.56
2019-04-05T05:15:56.037Z,99973.38
2019-04-05T05:18:26.838Z,99980.81
2019-04-05T05:20:58.488Z,99984.95
2019-04-05T05:23:30.781Z,99984.73
2019-04-05T05:26:01.659Z,99982.84
2019-04-05T05:28:33.178Z,99988.21
2019-04-05T05:31:05.058Z,99986.09
2019-04-05T05:33:36.880Z,99987.39
2019-04-05T05:36:10.464Z,99998.02
2019-04-05T05:38:40.390Z,99994.95
2019-04-05T05:41:11.912Z,99990.57
2019-04-05T05:43:43.376Z,99995.43
2019-04-05T05:46:14.412Z,99994.98
2019-04-05T05:48:45.403Z,99992.92
2019-04-05T05:51:16.535Z,99997.67
2019-04-05T05:53:47.670Z,99988.31
2019-04-05T05:56:18.801Z,99990.67
2019-04-05T05:58:49.849Z,99984.84
2019-04-05T06:01:20.926Z,99986.28
2019-04-05T06:03:52.210Z,99989.17
2019-04-05T06:06:23.460Z,99986.44
2019-04-05T06:08:55.041Z,99990.42
2019-04-05T06:11:26.820Z,99996.91
2019-04-05T06:13:59.216Z,99991.19
2019-04-05T06:16:30.750Z,99987.22
2019-04-05T06:19:02.109Z,99988.53
2019-04-05T06:21:33.173Z,99991.38
2019-04-05T06:24:05.432Z,99994.56
2019-04-05T06:26:36.370Z,100005.26
2019-04-05T06:29:07.888Z,99998.48
2019-04-05T06:31:39.114Z,99997.38
2019-04-05T06:34:10.116Z,100004.28
2019-04-05T06:36:40.980Z,100004.16
2019-04-05T06:39:12.193Z,100002.19
2019-04-05T06:41:43.451Z,100000.68
2019-04-05T06:44:14.868Z,100007.94
2019-04-05T06:46:46.470Z,100006.56
2019-04-05T06:49:17.734Z,100008.10
2019-04-05T06:51:49.099Z,100014.02
2019-04-05T06:54:20.155Z,100009.84
2019-04-05T06:56:54.668Z,100006.56
2019-04-05T06:59:25.829Z,100009.78
2019-04-05T07:01:57.329Z,100009.07
2019-04-05T07:04:31.067Z,100018.91
2019-04-05T07:07:02.046Z,100014.77
2019-04-05T07:09:34.317Z,100016.72
2019-04-05T07:12:05.975Z,100016.01
2019-04-05T07:14:36.922Z,100018.02
2019-04-05T07:17:08.389Z,100016.98
2019-04-05T07:19:39.679Z,100016.41
2019-04-05T07:22:11.448Z,100009.81
2019-04-05T07:24:42.676Z,100006.77
2019-04-05T07:27:13.827Z,100007.73
2019-04-05T07:29:45.158Z,100006.30
2019-04-05T07:32:16.303Z,100008.49
2019-04-05T07:34:47.637Z,100011.42
2019-04-05T07:37:18.924Z,100011.73
2019-04-05T07:39:49.755Z,100007.17
2019-04-05T07:42:20.565Z,100004.27
2019-04-05T07:44:52.251Z,100011.36
2019-04-05T07:47:23.462Z,100013.63
2019-04-05T07:49:54.406Z,100017.36
2019-04-05T07:52:26.003Z,100022.33
2019-04-05T07:54:56.846Z,100018.45
2019-04-05T07:57:28.391Z,100022.83
2019-04-05T07:59:59.442Z,100025.06
2019-04-05T08:02:30.733Z,100023.34
2019-04-05T08:05:02.099Z,100026.97
2019-04-05T08:07:35.414Z,100022.67
2019-04-05T08:10:08.383Z,100027.59
2019-04-05T08:12:39.831Z,100025.51
2019-04-05T08:15:11.522Z,100032.64
2019-04-05T08:17:42.496Z,100031.04
2019-04-05T08:20:13.940Z,100035.47
2019-04-05T08:22:45.624Z,100030.22
2019-04-05T08:25:16.703Z,100025.87
2019-04-05T08:27:47.803Z,100028.56
2019-04-05T08:30:19.161Z,100033.91
2019-04-05T08:32:50.397Z,100021.27
2019-04-05T08:35:23.618Z,100033.17
2019-04-05T08:37:55.765Z,100022.63
2019-04-05T08:40:27.299Z,100032.38
2019-04-05T08:42:58.460Z,100024.07
2019-04-05T08:45:31.105Z,100028.94
2019-04-05T08:48:04.493Z,100028.10
2019-04-05T08:50:37.072Z,100022.36
2019-04-05T08:53:09.216Z,100015.77
2019-04-05T08:55:41.213Z,100021.08
2019-04-05T08:58:15.077Z,100021.08
2019-04-05T09:00:47.528Z,100019.31
2019-04-05T09:03:19.187Z,100024.62
2019-04-05T10:15:44.160Z,100019.53
2019-04-05T10:18:16.054Z,100019.96
2019-04-05T10:20:47.225Z,100014.28
2019-04-05T10:23:18.366Z,100022.20
2019-04-05T10:25:50.123Z,100023.55
2019-04-05T10:28:21.624Z,100022.78
2019-04-05T10:30:53.267Z,100017.51
2019-04-05T10:33:24.529Z,100016.10
2019-04-05T10:35:55.494Z,100021.75
2019-04-05T10:38:26.868Z,100005.47
2019-04-05T10:40:57.902Z,100008.70
2019-04-05T10:43:28.703Z,100006.98
2019-04-05T10:45:59.744Z,100004.14
2019-04-05T10:48:31.359Z,100010.50
2019-04-05T10:51:03.139Z,100000.45
2019-04-05T10:53:36.491Z,99999.43
2019-04-05T10:56:08.055Z,99991.92
2019-04-05T10:58:39.398Z,99997.12
2019-04-05T11:01:10.903Z,99994.54
2019-04-05T11:03:42.474Z,99991.43
2019-04-05T11:06:13.926Z,99990.06
2019-04-05T11:08:45.453Z,99989.25
2019-04-05T11:11:17.001Z,99996.65
2019-04-05T11:13:48.264Z,99990.89
2019-04-05T11:16:19.514Z,99990.28
2019-04-05T11:18:51.393Z,99989.80
2019-04-05T11:21:22.554Z,99990.94
2019-04-05T11:23:55.509Z,99996.70
2019-04-05T11:26:25.952Z,99986.33
2019-04-05T11:28:57.055Z,99997.38
2019-04-05T11:31:29.143Z,99997.77
2019-04-05T11:34:00.360Z,99998.47
2019-04-05T11:36:32.217Z,99995.64
2019-04-05T11:39:07.776Z,99993.97
2019-04-05T11:41:38.867Z,99992.95
2019-04-05T11:44:10.008Z,99993.91
2019-04-05T11:46:41.823Z,99997.41
2019-04-05T11:49:13.744Z,99987.03
2019-04-05T11:51:44.961Z,99985.56
2019-04-05T11:54:18.377Z,99987.09
2019-04-05T11:56:48.049Z,99991.80
2019-04-05T11:59:21.955Z,99996.80
2019-04-05T12:01:54.324Z,99990.20
2019-04-05T12:04:24.987Z,99988.55
2019-04-05T12:06:56.166Z,99984.14
2019-04-05T12:09:27.009Z,99989.72
2019-04-05T12:11:57.594Z,99984.10
2019-04-05T12:14:30.410Z,99980.27
2019-04-05T12:17:05.659Z,99985.31
2019-04-05T12:19:38.270Z,99985.39
2019-04-05T12:22:13.268Z,99986.41
2019-04-05T12:24:44.043Z,99994.95
2019-04-05T12:27:14.804Z,99988.53
2019-04-05T12:29:45.523Z,99980.66
2019-04-05T12:32:33.418Z,99982.36
2019-04-05T12:34:57.941Z,99977.17
2019-04-05T12:37:28.829Z,99974.94
2019-04-05T12:39:59.894Z,99965.03
2019-04-05T12:42:30.751Z,99971.78
2019-04-05T12:45:02.958Z,99969.02
2019-04-05T12:47:34.078Z,99969.77
2019-04-05T12:50:06.812Z,99957.11
2019-04-05T12:52:37.688Z,99961.23
2019-04-05T12:55:08.498Z,99957.02
2019-04-05T12:57:39.317Z,99955.19
2019-04-05T13:00:26.711Z,99968.71
2019-04-05T13:02:58.364Z,99968.06
2019-04-05T13:05:29.080Z,99967.38
2019-04-05T13:08:01.356Z,99962.02
2019-04-05T13:10:32.310Z,99961.31
2019-04-05T13:13:03.164Z,99948.33
2019-04-05T13:15:34.089Z,99953.05
2019-04-05T13:18:05.009Z,99959.21
2019-04-05T13:20:39.441Z,99953.36
2019-04-05T13:23:10.693Z,99952.90
2019-04-05T13:25:41.731Z,99946.67
2019-04-05T13:28:13.748Z,99950.23
2019-04-05T13:30:48.116Z,99948.25
2019-04-05T13:33:17.797Z,99956.56
2019-04-05T13:35:57.133Z,99953.36
2019-04-05T13:38:29.858Z,99960.48
2019-04-05T13:41:02.213Z,99960.80
2019-04-05T13:43:33.223Z,99959.96
2019-04-05T13:46:04.102Z,99954.13
2019-04-05T13:48:35.066Z,99957.23
2019-04-05T13:51:07.259Z,99961.64
2019-04-05T13:53:38.413Z,99962.52
2019-04-05T13:56:11.074Z,99962.06
2019-04-05T13:58:45.999Z,99956.15
2019-04-05T14:01:14.585Z,99956.79
2019-04-05T14:03:45.206Z,99958.25
2019-04-05T14:06:15.923Z,99957.84
2019-04-05T14:08:46.842Z,99957.01
2019-04-05T14:11:17.972Z,99959.70
2019-04-05T14:13:48.800Z,99961.31
2019-04-05T14:16:19.737Z,99961.78
2019-04-05T14:18:50.729Z,99974.46
2019-04-05T14:21:22.499Z,99969.75
2019-04-05T14:23:53.960Z,99967.66
2019-04-05T14:26:24.986Z,99961.06
2019-04-05T14:28:55.951Z,99959.44
2019-04-05T14:31:26.875Z,99960.31
2019-04-05T14:33:57.630Z,99954.06
2019-04-05T14:36:28.421Z,99958.05
2019-04-05T14:38:59.301Z,99953.19
2019-04-05T14:41:29.966Z,99957.98
2019-04-05T14:44:00.549Z,99962.36
2019-04-05T14:46:32.637Z,99960.98
2019-04-05T14:49:04.704Z,99963.03
2019-04-05T14:51:35.377Z,99967.49
2019-04-05T14:54:09.887Z,99963.09
2019-04-05T14:56:41.473Z,99959.59
2019-04-05T14:59:12.187Z,99961.43
2019-04-05T15:01:47.153Z,99969.89
2019-04-05T15:04:18.888Z,99965.06
2019-04-05T15:06:50.643Z,99966.41
2019-04-05T15:09:25.566Z,99960.69
2019-04-05T15:11:56.493Z,99966.92
2019-04-05T15:14:27.915Z,99961.09
2019-04-05T15:16:59.911Z,99957.88
2019-04-05T15:19:31.545Z,99956.91
2019-04-05T15:22:05.980Z,99962.07
2019-04-05T15:24:35.242Z,99964.30
2019-04-05T15:27:06.630Z,99960.80
2019-04-05T15:29:38.561Z,99957.67
2019-04-05T15:32:09.786Z,99949.55
2019-04-05T15:34:42.854Z,99952.17
2019-04-05T15:37:16.004Z,99962.09
2019-04-05T15:39:47.040Z,99958.69
2019-04-05T15:42:18.403Z,99963.77
2019-04-05T15:44:49.588Z,99966.52
2019-04-05T15:47:23.244Z,99964.67
2019-04-05T15:49:53.495Z,99961.56
2019-04-05T15:52:27.888Z,99969.17
2019-04-05T15:54:58.059Z,99967.97
2019-04-05T15:57:33.329Z,99982.19
2019-04-05T16:00:04.815Z,99984.91
2019-04-05T16:02:35.944Z,99991.63
2019-04-05T16:05:08.549Z,99997.88
2019-04-05T16:07:39.340Z,99999.23
2019-04-05T16:10:11.065Z,100006.78
2019-04-05T16:12:41.930Z,100016.02
2019-04-05T16:15:13.058Z,100024.42
2019-04-05T16:17:44.487Z,100039.05
2019-04-05T16:20:16.441Z,100048.37
2019-04-05T16:22:47.867Z,100062.94
2019-04-05T16:25:19.452Z,100054.98
2019-04-05T16:27:50.441Z,100049.23
2019-04-05T16:30:21.686Z,100045.26
2019-04-05T16:32:53.047Z,100041.72
2019-04-05T16:35:24.238Z,100032.89
2019-04-05T16:37:55.132Z,100037.69
2019-04-05T16:40:26.559Z,100028.01
2019-04-05T16:43:02.575Z,100034.97
2019-04-05T16:45:30.616Z,100038.45
2019-04-05T16:48:02.084Z,100042.31
2019-04-05T16:50:36.228Z,100039.17
2019-04-05T16:53:06.952Z,100044.80
2019-04-05T16:55:38.259Z,100044.36
2019-04-05T16:58:10.603Z,100042.61
2019-04-05T17:00:42.168Z,100049.66
2019-04-05T17:03:13.706Z,100053.55
2019-04-05T17:05:45.098Z,100049.12
2019-04-05T17:08:16.632Z,100053.06
2019-04-05T17:10:47.960Z,100053.96
2019-04-05T17:13:19.357Z,100054.89
2019-04-05T17:15:50.351Z,100054.84
2019-04-05T17:18:22.040Z,100059.26
2019-04-05T17:20:53.395Z,100054.41
2019-04-05T17:23:24.091Z,100050.43
2019-04-05T17:25:56.055Z,100049.09
2019-04-05T17:28:29.114Z,100055.23
2019-04-05T17:31:01.952Z,100053.05
2019-04-05T17:33:38.869Z,100059.15
2019-04-05T17:36:11.515Z,100064.42
2019-04-05T17:38:42.872Z,100071.83
2019-04-05T17:41:14.454Z,100079.24
2019-04-05T17:43:51.284Z,100079.69
2019-04-05T17:46:34.806Z,100080.51
2019-04-05T17:49:09.893Z,100083.52
2019-04-05T17:51:52.450Z,100086.48
2019-04-05T17:54:24.635Z,100093.03
2019-04-05T17:56:56.725Z,100093.88
2019-04-05T17:59:28.724Z,100101.75
2019-04-05T18:02:00.063Z,100101.28
2019-04-05T18:04:32.138Z,100102.13
2019-04-05T18:07:03.297Z,100107.79
2019-04-05T18:09:34.694Z,100106.03
2019-04-05T18:12:06.290Z,100109.52
2019-04-05T18:14:42.619Z,100113.87
2019-04-05T18:17:24.630Z,100119.61
2019-04-05T18:20:00.075Z,100117.81
2019-04-05T18:22:31.298Z,100116.94
2019-04-05T18:25:03.331Z,100127.50
2019-04-05T18:27:35.733Z,100120.89
2019-04-05T18:30:08.442Z,100127.03
2019-04-05T18:32:40.213Z,100135.33
2019-04-05T18:35:14.181Z,100129.63
2019-04-05T18:37:45.490Z,100134.86
2019-04-05T18:40:18.810Z,100136.21
2019-04-05T18:42:50.056Z,100133.54
2019-04-05T18:45:27.804Z,100138.33
2019-04-05T18:48:09.755Z,100133.02
2019-04-05T18:50:49.894Z,100135.22
2019-04-05T18:53:37.463Z,100135.25
2019-04-05T18:56:09.299Z,100133.47
2019-04-05T18:59:01.251Z,100136.05
2019-04-05T19:01:46.927Z,100138.17
2019-04-05T19:04:24.939Z,100140.36
2019-04-05T19:07:06.794Z,100144.31
2019-04-05T19:09:44.096Z,100152.56
2019-04-05T19:12:15.746Z,100139.31
2019-04-05T19:14:49.646Z,100145.91
2019-04-05T19:17:24.437Z,100148.02
2019-04-05T19:20:17.931Z,100147.56
2019-04-05T19:23:04.611Z,100150.52
2019-04-05T19:25:38.843Z,100160.52
2019-04-05T19:28:12.983Z,100162.27
2019-04-05T19:48:49.811Z,100156.28
2019-04-05T19:51:21.213Z,100154.97
2019-04-05T19:54:01.004Z,100156.27
2019-04-05T19:56:26.050Z,100161.50
2019-04-05T19:58:58.404Z,100162.37
2019-04-05T20:01:29.628Z,100164.55
2019-04-05T20:04:02.490Z,100162.71
2019-04-05T20:06:33.489Z,100162.28
2019-04-05T20:09:05.753Z,100163.91
2019-04-05T20:11:36.888Z,100166.01
2019-04-05T20:14:08.172Z,100168.09
2019-04-05T20:16:39.283Z,100168.48
2019-04-05T20:19:12.073Z,100165.75
2019-04-05T20:21:43.315Z,100169.13
2019-04-05T20:24:16.597Z,100172.92
2019-04-05T20:26:48.084Z,100171.10
2019-04-05T20:29:21.495Z,100174.17
2019-04-05T20:31:52.029Z,100173.11
2019-04-05T20:34:26.578Z,100176.39
2019-04-05T20:36:57.651Z,100174.11
2019-04-05T20:39:28.509Z,100178.34
2019-04-05T20:41:59.464Z,100177.84
2019-04-05T20:44:30.423Z,100181.67
2019-04-05T20:47:02.108Z,100183.30
2019-04-05T20:49:33.364Z,100182.02
2019-04-05T20:52:04.092Z,100182.73
2019-04-05T20:54:34.923Z,100191.12
2019-04-05T20:57:05.840Z,100187.07
2019-04-05T20:59:36.476Z,100184.36
2019-04-05T21:02:07.277Z,100188.09
2019-04-05T21:04:38.127Z,100191.88
2019-04-05T21:07:09.142Z,100185.45
2019-04-05T21:09:41.879Z,100188.03
2019-04-05T21:12:12.898Z,100200.26
2019-04-05T21:14:43.851Z,100197.11
2019-04-05T21:17:15.390Z,100196.16
2019-04-05T21:19:46.384Z,100197.70
2019-04-05T21:22:17.750Z,100202.80
2019-04-05T21:24:48.785Z,100193.06
2019-04-05T21:27:20.072Z,100205.22
2019-04-05T21:29:51.023Z,100209.00
2019-04-05T21:32:21.985Z,100213.71
2019-04-05T21:34:53.501Z,100206.26
2019-04-05T21:37:26.470Z,100207.89
2019-04-05T21:39:57.594Z,100211.97
2019-04-05T21:42:29.436Z,100218.30
2019-04-05T21:45:00.549Z,100216.09
2019-04-05T21:47:31.706Z,100211.67
2019-04-05T21:50:02.592Z,100216.78
2019-04-05T21:52:33.693Z,100218.03
2019-04-05T21:55:06.503Z,100225.19
2019-04-05T21:57:38.026Z,100222.23
2019-04-05T22:00:12.829Z,100227.64
2019-04-05T22:02:46.521Z,100235.39
2019-04-05T22:05:18.462Z,100230.41
2019-04-05T22:07:51.532Z,100223.97
2019-04-05T22:10:23.065Z,100228.21
2019-04-05T22:12:54.852Z,100231.05
2019-04-05T22:15:26.521Z,100240.61
2019-04-05T22:17:58.214Z,100233.06
2019-04-05T22:20:29.605Z,100234.41
2019-04-05T22:23:00.765Z,100230.20
2019-04-05T22:25:32.782Z,100224.52
2019-04-05T22:28:03.871Z,100238.17
2019-04-05T22:30:35.228Z,100232.88
2019-04-05T22:33:06.213Z,100231.77
2019-04-05T22:35:38.046Z,100233.41
2019-04-05T22:38:09.331Z,100240.31
2019-04-05T22:40:40.846Z,100239.52
2019-04-05T22:43:12.513Z,100235.56
2019-04-05T22:45:43.239Z,100231.95
2019-04-05T22:48:14.361Z,100232.67
2019-04-05T22:50:45.596Z,100234.27
2019-04-05T22:53:16.650Z,100234.20
2019-04-05T22:55:47.900Z,100237.50
2019-04-05T22:58:19.328Z,100238.92
2019-04-05T23:00:49.952Z,100234.58
2019-04-05T23:03:20.966Z,100232.55
2019-04-05T23:05:51.684Z,100237.85
2019-04-05T23:08:22.794Z,100238.62
2019-04-05T23:10:53.541Z,100240.89
2019-04-05T23:13:23.989Z,100239.94
2019-04-05T23:15:54.877Z,100239.45
2019-04-05T23:18:26.452Z,100240.22
2019-04-05T23:21:00.429Z,100243.39
2019-04-05T23:23:31.611Z,100243.47
2019-04-05T23:26:02.883Z,100245.34
2019-04-05T23:28:34.141Z,100243.39
2019-04-05T23:31:05.551Z,100250.48
2019-04-05T23:33:39.982Z,100249.73
2019-04-05T23:36:10.599Z,100241.63
2019-04-05T23:38:41.615Z,100251.97
2019-04-05T23:41:12.520Z,100250.66
2019-04-05T23:43:44.025Z,100248.47
2019-04-05T23:46:15.105Z,100252.84
2019-04-05T23:48:47.536Z,100249.78
2019-04-05T23:51:19.011Z,100246.70
2019-04-05T23:53:53.209Z,100246.38
2019-04-05T23:56:24.685Z,100244.58
2019-04-05T23:58:55.541Z,100239.18
